createdAt,value
2018-07-07T00:01:35.708Z,89.20
2018-07-07T00:04:08.201Z,89.30
2018-07-07T00:06:40.018Z,89.50
2018-07-07T00:09:12.086Z,89.00
2018-07-07T00:11:43.871Z,89.00
2018-07-07T00:14:16.106Z,89.30
2018-07-07T00:16:47.892Z,88.40
2018-07-07T00:19:19.603Z,88.10
2018-07-07T00:21:51.506Z,88.40
2018-07-07T00:24:23.463Z,88.50
2018-07-07T00:26:55.472Z,88.50
2018-07-07T00:29:27.578Z,88.80
2018-07-07T00:31:59.635Z,88.80
2018-07-07T00:34:31.535Z,89.00
2018-07-07T00:37:03.135Z,89.00
2018-07-07T00:39:36.920Z,89.10
2018-07-07T00:42:08.827Z,89.10
2018-07-07T00:44:41.302Z,89.20
2018-07-07T00:47:12.990Z,89.50
2018-07-07T00:49:44.975Z,89.70
2018-07-07T00:52:16.855Z,89.60
2018-07-07T00:54:48.514Z,89.60
2018-07-07T00:57:20.498Z,89.60
2018-07-07T00:59:52.927Z,89.60
2018-07-07T01:02:25.034Z,89.70
2018-07-07T01:04:57.266Z,89.70
2018-07-07T01:07:29.122Z,89.90
2018-07-07T01:10:01.270Z,89.90
2018-07-07T01:12:32.903Z,89.90
2018-07-07T01:15:04.991Z,90.00
2018-07-07T01:17:37.090Z,90.00
2018-07-07T01:20:08.953Z,90.10
2018-07-07T01:22:40.754Z,90.20
2018-07-07T01:25:12.947Z,90.20
2018-07-07T01:27:44.631Z,90.30
2018-07-07T01:30:16.666Z,90.40
2018-07-07T01:32:48.539Z,90.40
2018-07-07T01:35:20.579Z,90.40
2018-07-07T01:37:52.258Z,90.30
2018-07-07T01:40:25.522Z,90.50
2018-07-07T01:42:57.373Z,90.40
2018-07-07T01:48:00.236Z,90.40
2018-07-07T01:50:32.295Z,90.40
2018-07-07T01:53:04.223Z,90.30
2018-07-07T01:55:36.393Z,90.20
2018-07-07T01:58:20.522Z,90.30
2018-07-07T02:00:54.294Z,90.30
2018-07-07T02:05:57.386Z,90.40
2018-07-07T02:08:29.342Z,90.30
2018-07-07T02:11:01.312Z,90.30
2018-07-07T02:13:33.187Z,90.30
2018-07-07T02:16:04.996Z,90.20
2018-07-07T02:18:36.831Z,90.10
2018-07-07T02:23:40.422Z,90.10
2018-07-07T02:26:12.247Z,90.10
2018-07-07T02:28:44.207Z,90.10
2018-07-07T02:31:16.427Z,90.10
2018-07-07T02:33:48.241Z,90.10
2018-07-07T02:38:50.978Z,90.20
2018-07-07T02:41:24.091Z,90.10
2018-07-07T02:43:55.947Z,90.20
2018-07-07T02:46:28.138Z,90.30
2018-07-07T02:49:00.317Z,90.10
2018-07-07T02:51:32.204Z,90.50
2018-07-07T02:54:03.850Z,90.50
2018-07-07T02:56:36.046Z,90.40
2018-07-07T02:59:07.910Z,90.00
2018-07-07T03:01:39.970Z,89.90
2018-07-07T03:04:11.806Z,89.40
2018-07-07T03:06:43.707Z,89.60
2018-07-07T03:09:15.741Z,89.90
2018-07-07T03:11:48.161Z,89.50
2018-07-07T03:14:19.838Z,89.00
2018-07-07T03:16:52.034Z,88.80
2018-07-07T03:19:24.057Z,88.90
2018-07-07T03:21:56.218Z,88.20
2018-07-07T03:24:28.139Z,87.70
2018-07-07T03:26:59.907Z,87.60
2018-07-07T03:29:32.250Z,87.50
2018-07-07T03:32:04.461Z,87.10
2018-07-07T03:34:36.314Z,86.40
2018-07-07T03:37:08.389Z,86.90
2018-07-07T03:39:40.326Z,86.90
2018-07-07T03:42:13.595Z,86.80
2018-07-07T03:44:45.467Z,87.80
2018-07-07T03:47:17.419Z,88.30
2018-07-07T03:49:49.060Z,88.20
2018-07-07T03:52:20.948Z,88.30
2018-07-07T03:54:53.325Z,87.70
2018-07-07T03:57:25.800Z,87.60
2018-07-07T03:59:57.410Z,87.70
2018-07-07T04:02:29.285Z,87.10
2018-07-07T04:05:01.080Z,86.50
2018-07-07T04:07:33.084Z,87.50
2018-07-07T04:10:04.936Z,87.20
2018-07-07T04:15:08.265Z,86.80
2018-07-07T04:17:40.459Z,86.70
2018-07-07T04:20:12.200Z,86.80
2018-07-07T04:22:44.187Z,87.00
2018-07-07T04:27:47.282Z,85.70
2018-07-07T04:30:19.434Z,85.50
2018-07-07T04:32:51.647Z,85.80
2018-07-07T04:35:23.359Z,85.20
2018-07-07T04:37:55.472Z,84.80
2018-07-07T04:40:27.474Z,84.70
2018-07-07T04:43:01.893Z,86.20
2018-07-07T04:45:34.522Z,85.80
2018-07-07T04:48:06.660Z,85.10
2018-07-07T04:50:39.106Z,85.10
2018-07-07T04:53:11.227Z,85.30
2018-07-07T04:55:43.779Z,84.70
2018-07-07T04:58:17.524Z,83.60
2018-07-07T05:00:49.499Z,82.70
2018-07-07T05:05:52.466Z,82.40
2018-07-07T05:10:56.271Z,82.10
2018-07-07T05:13:28.553Z,82.40
2018-07-07T05:16:00.421Z,82.50
2018-07-07T05:18:32.299Z,82.30
2018-07-07T05:21:03.953Z,82.20
2018-07-07T05:23:36.425Z,81.70
2018-07-07T05:26:08.324Z,81.40
2018-07-07T05:28:40.208Z,81.10
2018-07-07T05:31:12.380Z,81.10
2018-07-07T05:33:44.698Z,80.10
2018-07-07T05:36:16.532Z,78.80
2018-07-07T05:38:48.677Z,77.30
2018-07-07T05:41:21.386Z,76.80
2018-07-07T05:43:58.237Z,75.50
2018-07-07T05:49:02.092Z,78.30
2018-07-07T05:51:34.319Z,79.40
2018-07-07T05:54:06.463Z,79.20
2018-07-07T05:59:09.258Z,78.80
2018-07-07T06:04:12.182Z,79.00
2018-07-07T06:06:44.252Z,79.30
2018-07-07T06:09:16.586Z,80.00
2018-07-07T06:11:48.306Z,79.40
2018-07-07T06:14:20.805Z,75.50
2018-07-07T06:16:52.663Z,74.60
2018-07-07T06:19:24.738Z,79.30
2018-07-07T06:21:56.751Z,81.30
2018-07-07T06:24:28.907Z,79.50
2018-07-07T06:27:00.640Z,78.90
2018-07-07T06:29:32.823Z,82.30
2018-07-07T06:32:04.587Z,83.90
2018-07-07T06:34:36.850Z,76.90
2018-07-07T06:37:16.046Z,75.80
2018-07-07T06:40:04.603Z,77.80
2018-07-07T06:42:43.628Z,88.10
2018-07-07T06:45:21.313Z,85.90
2018-07-07T06:48:05.274Z,84.70
2018-07-07T06:50:44.797Z,83.60
2018-07-07T06:53:30.354Z,82.70
2018-07-07T06:56:04.218Z,82.70
2018-07-07T06:58:47.261Z,82.90
2018-07-07T07:01:20.385Z,82.30
2018-07-07T07:06:39.786Z,80.30
2018-07-07T07:09:17.495Z,81.30
2018-07-07T07:12:00.119Z,81.30
2018-07-07T07:14:32.282Z,80.50
2018-07-07T07:17:04.287Z,79.30
2018-07-07T07:19:47.813Z,78.60
2018-07-07T07:22:26.754Z,79.10
2018-07-07T07:24:59.199Z,78.10
2018-07-07T07:27:31.386Z,77.10
2018-07-07T07:30:03.043Z,76.40
2018-07-07T07:32:35.384Z,75.10
2018-07-07T07:35:07.543Z,74.60
2018-07-07T07:37:39.465Z,74.70
2018-07-07T07:40:11.138Z,74.60
2018-07-07T07:42:43.314Z,75.00
2018-07-07T07:47:47.679Z,75.10
2018-07-07T07:50:19.578Z,75.80
2018-07-07T07:52:51.847Z,76.50
2018-07-07T07:55:23.689Z,76.70
2018-07-07T07:57:56.109Z,79.50
2018-07-07T08:00:27.882Z,81.10
2018-07-07T08:02:59.966Z,82.00
2018-07-07T08:05:31.788Z,83.10
2018-07-07T08:08:03.626Z,84.20
2018-07-07T08:10:35.563Z,81.80
2018-07-07T08:13:08.527Z,83.20
2018-07-07T08:15:40.352Z,84.60
2018-07-07T08:18:12.568Z,84.60
2018-07-07T08:20:44.345Z,85.00
2018-07-07T08:23:16.078Z,86.10
2018-07-07T08:25:47.870Z,84.70
2018-07-07T08:28:20.145Z,84.60
2018-07-07T08:30:51.538Z,84.50
2018-07-07T08:33:23.838Z,85.20
2018-07-07T08:35:56.166Z,86.00
2018-07-07T08:38:28.215Z,85.10
2018-07-07T08:41:00.090Z,83.70
2018-07-07T08:43:32.212Z,84.30
2018-07-07T08:46:04.936Z,84.20
2018-07-07T08:48:37.082Z,84.20
2018-07-07T08:51:08.667Z,85.40
2018-07-07T08:53:40.670Z,83.90
2018-07-07T08:56:12.414Z,83.00
2018-07-07T08:58:44.345Z,82.60
2018-07-07T09:01:16.397Z,82.50
2018-07-07T09:03:48.307Z,83.30
2018-07-07T09:06:20.064Z,85.30
2018-07-07T09:08:52.236Z,86.30
2018-07-07T09:11:23.911Z,84.90
2018-07-07T09:13:56.027Z,85.50
2018-07-07T09:16:27.854Z,86.30
2018-07-07T09:18:59.970Z,85.50
2018-07-07T09:21:31.598Z,85.30
2018-07-07T09:24:03.777Z,86.20
2018-07-07T09:26:35.883Z,87.10
2018-07-07T09:29:08.036Z,87.40
2018-07-07T09:31:39.670Z,87.40
2018-07-07T09:34:11.747Z,86.50
2018-07-07T09:36:44.058Z,86.50
2018-07-07T09:39:15.971Z,86.90
2018-07-07T09:41:47.629Z,87.20
2018-07-07T09:44:19.628Z,86.50
2018-07-07T09:46:53.683Z,86.00
2018-07-07T09:49:26.068Z,86.20
2018-07-07T09:51:58.155Z,86.20
2018-07-07T09:54:30.090Z,85.80
2018-07-07T09:57:02.101Z,86.70
2018-07-07T09:59:34.438Z,84.40
2018-07-07T10:02:06.510Z,84.00
2018-07-07T10:04:38.967Z,84.50
2018-07-07T10:07:10.738Z,84.80
2018-07-07T10:09:42.490Z,84.50
2018-07-07T10:12:14.211Z,84.60
2018-07-07T10:14:46.463Z,84.90
2018-07-07T10:17:18.333Z,84.10
2018-07-07T10:19:50.188Z,84.30
2018-07-07T10:22:22.104Z,84.30
2018-07-07T10:24:54.027Z,84.10
2018-07-07T10:27:25.995Z,84.30
2018-07-07T10:29:58.370Z,84.60
2018-07-07T10:32:30.181Z,85.50
2018-07-07T10:35:02.177Z,84.30
2018-07-07T10:37:33.983Z,84.30
2018-07-07T10:40:06.205Z,84.70
2018-07-07T10:42:38.124Z,85.40
2018-07-07T10:45:10.251Z,84.60
2018-07-07T10:47:43.452Z,84.20
2018-07-07T10:50:15.584Z,84.50
2018-07-07T10:52:47.439Z,83.90
2018-07-07T10:55:19.527Z,83.40
2018-07-07T10:57:51.697Z,83.40
2018-07-07T11:00:24.104Z,83.20
2018-07-07T11:02:55.937Z,82.60
2018-07-07T11:05:28.205Z,83.40
2018-07-07T11:08:00.207Z,82.00
2018-07-07T11:10:32.519Z,82.40
2018-07-07T11:15:35.395Z,81.80
2018-07-07T11:18:07.034Z,82.70
2018-07-07T11:20:39.280Z,83.60
2018-07-07T11:23:11.038Z,83.40
2018-07-07T11:25:43.094Z,83.80
2018-07-07T11:28:14.819Z,85.70
2018-07-07T11:30:46.729Z,85.70
2018-07-07T11:33:18.579Z,86.40
2018-07-07T11:35:50.715Z,86.50
2018-07-07T11:38:22.809Z,86.30
2018-07-07T11:40:55.368Z,86.00
2018-07-07T11:43:27.547Z,86.30
2018-07-07T11:46:00.114Z,86.40
2018-07-07T11:48:32.706Z,88.30
2018-07-07T11:51:04.858Z,90.30
2018-07-07T11:53:36.674Z,90.10
2018-07-07T11:56:08.708Z,90.10
2018-07-07T11:58:40.683Z,90.90
2018-07-07T12:01:12.650Z,91.20
2018-07-07T12:03:48.914Z,89.10
2018-07-07T12:06:33.841Z,85.90
2018-07-07T12:09:06.757Z,85.20
2018-07-07T12:11:39.017Z,87.20
2018-07-07T12:16:42.203Z,89.20
2018-07-07T12:19:14.114Z,90.70
2018-07-07T12:21:46.262Z,90.60
2018-07-07T12:24:18.296Z,91.20
2018-07-07T12:29:23.721Z,88.40
2018-07-07T12:31:55.779Z,89.70
2018-07-07T12:34:27.750Z,94.00
2018-07-07T12:36:59.648Z,93.80
2018-07-07T12:39:31.536Z,93.00
2018-07-07T12:42:03.751Z,93.80
2018-07-07T12:47:08.463Z,91.70
2018-07-07T12:49:41.782Z,91.20
2018-07-07T12:52:13.823Z,91.00
2018-07-07T12:54:45.562Z,91.00
2018-07-07T12:57:17.560Z,92.30
2018-07-07T12:59:49.514Z,92.70
2018-07-07T13:02:21.510Z,92.40
2018-07-07T13:04:53.255Z,92.20
2018-07-07T13:07:25.119Z,92.20
2018-07-07T13:09:56.950Z,92.40
2018-07-07T13:17:31.211Z,92.80
2018-07-07T13:20:02.891Z,91.70
2018-07-07T13:22:34.883Z,92.50
2018-07-07T13:27:37.442Z,93.30
2018-07-07T13:30:09.470Z,93.30
2018-07-07T13:32:41.696Z,94.30
2018-07-07T13:35:13.372Z,94.50
2018-07-07T13:37:45.425Z,92.70
2018-07-07T13:40:17.202Z,93.50
2018-07-07T13:42:49.015Z,94.20
2018-07-07T13:45:20.929Z,92.30
2018-07-07T13:47:53.082Z,93.90
2018-07-07T13:50:26.043Z,93.90
2018-07-07T13:52:58.127Z,94.00
2018-07-07T13:55:30.108Z,94.40
2018-07-07T13:58:02.098Z,95.50
2018-07-07T14:00:34.086Z,96.70
2018-07-07T14:03:05.864Z,97.10
2018-07-07T14:05:37.477Z,97.00
2018-07-07T14:08:09.675Z,97.00
2018-07-07T14:10:41.454Z,97.10
2018-07-07T14:13:13.588Z,97.30
2018-07-07T14:15:45.355Z,97.80
2018-07-07T14:18:17.085Z,96.70
2018-07-07T14:20:48.869Z,97.50
2018-07-07T14:23:21.002Z,98.00
2018-07-07T14:25:52.880Z,98.30
2018-07-07T14:28:24.982Z,98.00
2018-07-07T14:33:27.827Z,98.60
2018-07-07T14:35:59.844Z,99.30
2018-07-07T14:38:36.331Z,99.70
2018-07-07T14:41:14.317Z,99.50
2018-07-07T14:43:57.086Z,99.70
2018-07-07T14:46:29.793Z,99.00
2018-07-07T14:49:02.094Z,99.40
2018-07-07T14:51:35.031Z,99.60
2018-07-07T14:54:07.142Z,99.40
2018-07-07T14:56:38.962Z,99.50
2018-07-07T14:59:11.186Z,99.40
2018-07-07T15:01:42.862Z,99.40
2018-07-07T15:04:14.886Z,99.40
2018-07-07T15:06:46.651Z,99.40
2018-07-07T15:09:18.984Z,99.40
2018-07-07T15:11:55.271Z,99.50
2018-07-07T15:16:57.914Z,99.90
2018-07-07T15:19:29.950Z,99.90
2018-07-07T15:22:01.970Z,99.90
2018-07-07T15:24:34.351Z,99.90
2018-07-07T15:27:06.219Z,99.90
2018-07-07T15:29:38.156Z,99.90
2018-07-07T15:32:09.958Z,99.90
2018-07-07T15:34:41.736Z,99.90
2018-07-07T15:37:13.596Z,99.90
2018-07-07T15:42:16.502Z,99.90
2018-07-07T15:44:48.506Z,99.90
2018-07-07T15:47:20.232Z,99.90
2018-07-07T15:49:51.976Z,99.90
2018-07-07T15:52:25.585Z,99.90
2018-07-07T15:54:57.786Z,99.90
2018-07-07T15:57:29.746Z,99.90
2018-07-07T16:00:01.745Z,99.90
2018-07-07T16:02:33.694Z,99.90
2018-07-07T16:05:05.743Z,99.90
2018-07-07T16:07:37.739Z,99.90
2018-07-07T16:10:10.481Z,99.90
2018-07-07T16:12:42.819Z,99.90
2018-07-07T16:15:15.068Z,99.90
2018-07-07T16:17:47.146Z,99.90
2018-07-07T16:20:19.212Z,99.90
2018-07-07T16:22:50.898Z,99.90
2018-07-07T16:25:23.087Z,99.90
2018-07-07T16:27:54.887Z,99.90
2018-07-07T16:30:28.217Z,99.90
2018-07-07T16:32:59.932Z,99.90
2018-07-07T16:35:31.975Z,99.90
2018-07-07T16:38:03.721Z,99.90
2018-07-07T16:40:36.472Z,99.90
2018-07-07T16:43:08.702Z,99.90
2018-07-07T16:45:40.772Z,99.90
2018-07-07T16:48:13.107Z,99.90
2018-07-07T16:50:45.672Z,99.90
2018-07-07T16:53:18.582Z,99.90
2018-07-07T16:55:51.401Z,99.90
2018-07-07T16:58:23.414Z,99.90
2018-07-07T17:00:56.222Z,99.90
2018-07-07T17:03:28.788Z,99.90
2018-07-07T17:06:01.468Z,99.90
2018-07-07T17:08:34.626Z,99.90
2018-07-07T17:13:38.228Z,99.90
2018-07-07T17:16:10.516Z,99.90
2018-07-07T17:18:42.848Z,99.90
2018-07-07T17:21:15.891Z,99.90
2018-07-07T17:26:19.597Z,99.90
2018-07-07T17:33:55.370Z,99.90
2018-07-07T17:36:29.014Z,99.90
2018-07-07T17:39:03.950Z,99.90
2018-07-07T17:41:37.227Z,99.90
2018-07-07T17:44:09.679Z,99.90
2018-07-07T17:46:42.426Z,99.90
2018-07-07T17:49:14.818Z,99.90
2018-07-07T17:51:47.130Z,99.90
2018-07-07T17:54:21.734Z,99.80
2018-07-07T17:56:57.487Z,99.50
2018-07-07T17:59:30.835Z,99.10
2018-07-07T18:02:02.952Z,99.10
2018-07-07T18:04:36.059Z,98.60
2018-07-07T18:12:12.478Z,98.20
2018-07-07T18:14:44.255Z,98.20
2018-07-07T18:17:16.039Z,98.00
2018-07-07T18:19:48.143Z,97.90
2018-07-07T18:22:21.071Z,97.70
2018-07-07T18:24:54.890Z,97.50
2018-07-07T18:27:27.070Z,97.20
2018-07-07T18:29:59.086Z,97.50
2018-07-07T18:32:31.604Z,98.20
2018-07-07T18:35:03.692Z,98.70
2018-07-07T18:37:35.823Z,99.40
2018-07-07T18:40:08.241Z,99.80
2018-07-07T18:42:40.208Z,99.70
2018-07-07T18:45:12.305Z,99.80
2018-07-07T18:50:20.749Z,99.90
2018-07-07T18:52:54.427Z,99.90
2018-07-07T18:55:32.276Z,99.90
2018-07-07T18:58:04.540Z,99.90
2018-07-07T19:00:36.624Z,99.80
2018-07-07T19:03:08.814Z,99.60
2018-07-07T19:05:40.798Z,99.20
2018-07-07T19:08:12.566Z,99.50
2018-07-07T19:10:44.329Z,99.90
2018-07-07T19:13:16.698Z,99.20
2018-07-07T19:18:20.458Z,99.90
2018-07-07T19:20:56.750Z,99.90
2018-07-07T19:26:11.608Z,99.40
2018-07-07T19:28:43.443Z,99.70
2018-07-07T19:31:15.642Z,99.20
2018-07-07T19:33:52.096Z,98.60
2018-07-07T19:36:28.639Z,98.30
2018-07-07T19:39:00.514Z,98.00
2018-07-07T19:41:32.661Z,98.00
2018-07-07T19:44:04.667Z,98.00
2018-07-07T19:46:36.806Z,97.80
2018-07-07T19:49:08.642Z,97.90
2018-07-07T19:51:40.764Z,98.10
2018-07-07T19:54:12.616Z,98.10
2018-07-07T19:56:45.362Z,98.20
2018-07-07T19:59:17.222Z,98.00
2018-07-07T20:01:49.272Z,99.10
2018-07-07T20:04:21.192Z,99.50
2018-07-07T20:06:53.110Z,99.00
2018-07-07T20:09:24.819Z,98.60
2018-07-07T20:11:56.757Z,98.40
2018-07-07T20:14:28.603Z,99.20
2018-07-07T20:19:50.586Z,98.90
2018-07-07T20:24:53.541Z,99.00
2018-07-07T20:27:31.370Z,98.60
2018-07-07T20:32:39.426Z,98.50
2018-07-07T20:35:11.254Z,98.50
2018-07-07T20:37:43.319Z,98.30
2018-07-07T20:40:15.316Z,98.30
2018-07-07T20:42:48.031Z,98.40
2018-07-07T20:45:20.067Z,98.50
2018-07-07T20:47:52.046Z,98.50
2018-07-07T20:50:23.871Z,98.50
2018-07-07T20:52:56.366Z,98.50
2018-07-07T20:57:59.209Z,98.70
2018-07-07T21:00:30.846Z,98.60
2018-07-07T21:08:05.653Z,98.50
2018-07-07T21:10:37.567Z,98.50
2018-07-07T21:13:09.470Z,98.60
2018-07-07T21:15:41.504Z,99.10
2018-07-07T21:18:13.682Z,98.90
2018-07-07T21:20:45.611Z,98.80
2018-07-07T21:23:17.419Z,98.90
2018-07-07T21:25:49.140Z,99.00
2018-07-07T21:28:22.538Z,99.00
2018-07-07T21:30:54.509Z,99.10
2018-07-07T21:33:26.582Z,99.10
2018-07-07T21:35:58.813Z,99.00
2018-07-07T21:38:30.774Z,99.00
2018-07-07T21:41:02.595Z,99.00
2018-07-07T21:43:34.695Z,99.00
2018-07-07T21:46:06.628Z,98.90
2018-07-07T21:48:38.687Z,98.80
2018-07-07T21:51:10.403Z,98.60
2018-07-07T21:53:42.691Z,98.70
2018-07-07T21:56:14.570Z,98.70
2018-07-07T21:58:46.827Z,98.70
2018-07-07T22:01:39.569Z,98.60
2018-07-07T22:04:16.935Z,98.40
2018-07-07T22:06:54.284Z,98.50
2018-07-07T22:09:26.514Z,98.40
2018-07-07T22:11:58.654Z,98.40
2018-07-07T22:14:31.212Z,98.30
2018-07-07T22:17:03.062Z,98.50
2018-07-07T22:19:34.877Z,98.30
2018-07-07T22:22:08.936Z,98.20
2018-07-07T22:24:42.260Z,98.10
2018-07-07T22:27:15.371Z,98.10
2018-07-07T22:29:48.690Z,98.20
2018-07-07T22:32:21.824Z,98.10
2018-07-07T22:34:54.807Z,98.10
2018-07-07T22:37:26.495Z,98.10
2018-07-07T22:39:58.603Z,98.00
2018-07-07T22:42:30.478Z,98.20
2018-07-07T22:45:03.072Z,98.40
2018-07-07T22:47:35.402Z,98.20
2018-07-07T22:50:07.492Z,98.10
2018-07-07T22:52:39.304Z,98.20
2018-07-07T22:55:11.397Z,98.50
2018-07-07T22:57:43.073Z,98.60
2018-07-07T23:00:15.199Z,98.40
2018-07-07T23:02:46.750Z,98.20
2018-07-07T23:05:18.791Z,98.10
2018-07-07T23:07:50.720Z,98.00
2018-07-07T23:10:22.952Z,97.80
2018-07-07T23:12:54.857Z,97.60
2018-07-07T23:15:26.760Z,97.60
2018-07-07T23:17:58.557Z,97.70
2018-07-07T23:20:30.774Z,97.60
2018-07-07T23:23:02.524Z,97.60
2018-07-07T23:25:34.543Z,97.50
2018-07-07T23:28:06.330Z,97.50
2018-07-07T23:30:39.640Z,97.50
2018-07-07T23:33:11.840Z,97.40
2018-07-07T23:35:43.938Z,97.40
2018-07-07T23:38:15.881Z,97.30
2018-07-07T23:40:47.762Z,97.40
2018-07-07T23:43:19.422Z,97.20
2018-07-07T23:45:52.021Z,97.20
2018-07-07T23:48:23.823Z,97.20
2018-07-07T23:50:56.452Z,97.40
2018-07-07T23:53:28.379Z,97.60
2018-07-07T23:56:00.655Z,97.50
